Time;durP1;ratioP1;P1;durP2;ratioP2;P2;SDS_P1;SDS_P2;PMS_P1;PMS_P2;Temp;Humidity;BMP_temperature;BMP_pressure;BME280_temperature;BME280_humidity;BME280_pressure;Samples;Min_cycle;Max_cycle;Signal;HPM_P1;HPM_P2
2021/10/12 00:00:40;;;;;;;;;;;;;;;19.11;70.81;100684.53;5033616;28;1536;-41
2021/10/12 00:03:08;;;;;;;;;;;;;;;19.11;70.81;100700.59;5027552;28;1813;-41
2021/10/12 00:05:34;;;;;;;;;;;;;;;19.12;70.38;100699.63;5035592;28;1525;-40
2021/10/12 00:08:01;;;;;;;;;;;;;;;19.11;70.82;100692.56;5029284;28;2007;-41
2021/10/12 00:10:27;;;;;;;;;;;;;;;19.12;70.83;100685.38;5030916;28;1692;-41
2021/10/12 00:12:54;;;;;;;;;;;;;;;19.08;71.42;100691.03;5029416;28;1848;-41
2021/10/12 00:15:20;;;;;;;;;;;;;;;19.11;71.11;100672.97;5022943;28;1816;-40
2021/10/12 00:17:47;;;;;;;;;;;;;;;19.08;70.56;100669.56;5030369;28;1942;-41
2021/10/12 00:20:15;;;;;;;;;;;;;;;19.07;70.34;100675.91;5025389;28;1631;-41
2021/10/12 00:22:41;;;;;;;;;;;;;;;19.10;71.42;100671.25;5033408;28;1797;-42
2021/10/12 00:25:08;;;;;;;;;;;;;;;19.05;70.78;100651.06;5027420;28;1685;-41
2021/10/12 00:27:35;;;;;;;;;;;;;;;19.07;70.41;100662.50;5027151;28;1909;-42
2021/10/12 00:30:01;;;;;;;;;;;;;;;19.04;70.41;100654.75;5033128;28;1731;-41
2021/10/12 00:32:28;;;;;;;;;;;;;;;19.10;70.18;100679.28;5032473;28;1655;-41
2021/10/12 00:34:54;;;;;;;;;;;;;;;19.07;70.87;100659.81;5026372;28;1084;-40
2021/10/12 00:37:22;;;;;;;;;;;;;;;19.10;70.67;100660.53;5018116;28;1962;-41
2021/10/12 00:39:48;;;;;;;;;;;;;;;19.04;71.27;100662.81;5024374;28;1584;-41
2021/10/12 00:42:15;;;;;;;;;;;;;;;19.05;70.56;100661.81;5028711;28;2058;-41
2021/10/12 00:44:41;;;;;;;;;;;;;;;19.08;70.26;100658.03;5031032;28;1596;-42
2021/10/12 00:47:08;;;;;;;;;;;;;;;19.04;70.48;100661.97;5024964;28;1973;-41
2021/10/12 00:49:35;;;;;;;;;;;;;;;19.04;70.52;100664.66;5030698;28;1754;-41
2021/10/12 00:52:01;;;;;;;;;;;;;;;19.05;70.68;100659.13;5026986;28;1735;-41
2021/10/12 00:54:29;;;;;;;;;;;;;;;19.07;70.77;100651.78;5024052;28;1800;-42
2021/10/12 00:56:55;;;;;;;;;;;;;;;19.05;71.36;100653.75;5031910;28;1469;-41
2021/10/12 00:59:22;;;;;;;;;;;;;;;19.05;70.21;100643.03;5026261;28;1425;-41
2021/10/12 01:01:49;;;;;;;;;;;;;;;19.07;70.76;100665.19;5020555;28;1911;-41
2021/10/12 01:04:15;;;;;;;;;;;;;;;19.03;70.55;100662.94;5028266;28;1752;-41
2021/10/12 01:06:43;;;;;;;;;;;;;;;19.04;70.58;100649.41;5020078;28;1910;-42
2021/10/12 01:09:09;;;;;;;;;;;;;;;19.04;70.87;100657.44;5025983;28;1059;-41
2021/10/12 01:11:38;;;;;;;;;;;;;;;19.05;70.95;100647.56;5031309;28;1937;-41
2021/10/12 01:14:04;;;;;;;;;;;;;;;19.02;70.56;100659.41;5028075;28;1912;-42
2021/10/12 01:16:31;;;;;;;;;;;;;;;19.02;70.40;100643.34;5030586;28;1978;-41
2021/10/12 01:18:58;;;;;;;;;;;;;;;19.08;70.95;100658.03;5024251;28;1629;-41
2021/10/12 01:21:27;;;;;;;;;;;;;;;19.01;71.00;100646.97;5034553;28;1693;-41
2021/10/12 01:23:53;;;;;;;;;;;;;;;19.03;70.38;100645.00;5027637;28;1893;-41
2021/10/12 01:26:20;;;;;;;;;;;;;;;19.01;71.29;100649.66;5030749;28;2167;-41
2021/10/12 01:28:46;;;;;;;;;;;;;;;19.02;70.79;100629.94;5026871;28;1797;-41
2021/10/12 01:31:14;;;;;;;;;;;;;;;19.01;70.20;100627.38;5030675;28;1788;-41
2021/10/12 01:33:40;;;;;;;;;;;;;;;19.01;70.26;100635.44;5028823;28;1543;-41
2021/10/12 01:36:07;;;;;;;;;;;;;;;19.03;70.63;100636.97;5028277;28;1079;-41
2021/10/12 01:38:35;;;;;;;;;;;;;;;19.04;70.88;100643.19;5031422;28;1853;-41
2021/10/12 01:41:02;;;;;;;;;;;;;;;19.01;70.21;100638.94;5024015;28;1594;-42
2021/10/12 01:43:28;;;;;;;;;;;;;;;19.00;70.95;100631.91;5030259;28;1551;-41
2021/10/12 01:45:58;;;;;;;;;;;;;;;18.98;71.23;100625.84;5029331;28;1803;-41
2021/10/12 01:48:24;;;;;;;;;;;;;;;18.97;70.95;100612.56;5030004;28;1977;-41
2021/10/12 01:50:51;;;;;;;;;;;;;;;18.99;71.35;100622.16;5026264;28;2061;-41
2021/10/12 01:53:17;;;;;;;;;;;;;;;18.98;70.28;100617.81;5024586;28;1798;-40
2021/10/12 01:55:45;;;;;;;;;;;;;;;18.99;70.18;100615.97;5027691;28;1809;-41
2021/10/12 01:58:11;;;;;;;;;;;;;;;19.02;71.35;100613.84;5028041;28;1749;-41
2021/10/12 02:00:38;;;;;;;;;;;;;;;19.00;70.11;100606.91;5121763;23;3706;-43
2021/10/12 02:03:05;;;;;;;;;;;;;;;19.00;70.08;100607.78;5036193;28;1756;-41
2021/10/12 02:05:31;;;;;;;;;;;;;;;19.02;70.74;100619.22;5039425;28;1882;-41
2021/10/12 02:07:58;;;;;;;;;;;;;;;19.01;70.63;100603.25;5045352;28;1947;-41
2021/10/12 02:10:24;;;;;;;;;;;;;;;18.99;70.17;100599.88;5041358;28;1612;-41
2021/10/12 02:12:52;;;;;;;;;;;;;;;18.97;70.21;100591.97;5047160;28;1681;-41
2021/10/12 02:15:19;;;;;;;;;;;;;;;18.98;70.01;100582.97;5047939;28;1572;-41
2021/10/12 02:17:45;;;;;;;;;;;;;;;19.02;70.50;100591.53;5045071;28;1668;-41
2021/10/12 02:20:12;;;;;;;;;;;;;;;19.01;70.71;100576.47;5051818;28;1501;-41
2021/10/12 02:22:38;;;;;;;;;;;;;;;18.97;71.25;100572.38;5045825;28;1793;-41
2021/10/12 02:25:05;;;;;;;;;;;;;;;18.96;70.19;100562.63;5043859;28;1837;-41
2021/10/12 02:27:32;;;;;;;;;;;;;;;18.97;71.37;100569.69;5043505;28;1905;-41
2021/10/12 02:30:00;;;;;;;;;;;;;;;18.94;70.43;100560.13;5042395;28;1506;-41
2021/10/12 02:32:26;;;;;;;;;;;;;;;19.02;70.54;100554.91;5047311;28;1675;-41
2021/10/12 02:34:53;;;;;;;;;;;;;;;19.50;69.47;100573.75;5042821;28;1075;-41
2021/10/12 02:37:20;;;;;;;;;;;;;;;20.10;67.37;100563.59;5033892;28;2081;-40
2021/10/12 02:39:46;;;;;;;;;;;;;;;20.12;67.29;100580.41;5043177;28;1751;-41
2021/10/12 02:42:13;;;;;;;;;;;;;;;19.83;69.09;100572.44;5049991;28;1473;-41
2021/10/12 02:44:39;;;;;;;;;;;;;;;19.70;69.02;100561.19;5056023;28;1782;-42
2021/10/12 02:47:07;;;;;;;;;;;;;;;20.17;67.76;100574.59;5051559;28;1902;-41
2021/10/12 02:49:34;;;;;;;;;;;;;;;20.30;67.72;100579.63;5042085;28;1796;-41
2021/10/12 02:52:00;;;;;;;;;;;;;;;20.24;67.61;100573.84;5053827;28;1848;-41
2021/10/12 02:54:27;;;;;;;;;;;;;;;20.27;67.50;100557.47;5045512;28;1773;-42
2021/10/12 02:56:53;;;;;;;;;;;;;;;20.24;67.74;100573.84;5047940;28;1527;-40
2021/10/12 02:59:20;;;;;;;;;;;;;;;20.32;67.98;100578.47;5051938;28;1924;-40
2021/10/12 03:01:46;;;;;;;;;;;;;;;20.27;67.19;100568.19;5051691;28;1959;-40
2021/10/12 03:04:14;;;;;;;;;;;;;;;20.33;67.89;100574.78;5045603;28;1993;-41
2021/10/12 03:06:41;;;;;;;;;;;;;;;20.36;67.34;100557.56;5044766;28;1762;-41
2021/10/12 03:09:07;;;;;;;;;;;;;;;20.25;67.69;100548.72;5044061;28;1969;-40
2021/10/12 03:11:34;;;;;;;;;;;;;;;20.36;66.60;100557.56;5050061;28;1984;-40
2021/10/12 03:14:01;;;;;;;;;;;;;;;20.40;67.17;100557.09;5050966;28;1757;-41
2021/10/12 03:16:27;;;;;;;;;;;;;;;20.33;67.90;100547.94;5041241;28;1631;-40
2021/10/12 03:18:54;;;;;;;;;;;;;;;20.31;67.88;100554.47;5045815;28;1950;-40
2021/10/12 03:21:23;;;;;;;;;;;;;;;20.24;67.28;100538.94;5049084;28;1940;-43
2021/10/12 03:23:49;;;;;;;;;;;;;;;20.31;67.00;100554.47;5052762;28;1472;-41
2021/10/12 03:26:16;;;;;;;;;;;;;;;20.35;67.63;100550.47;5047841;28;1708;-40
2021/10/12 03:28:42;;;;;;;;;;;;;;;20.49;67.59;100562.56;5043318;28;1901;-41
2021/10/12 03:31:09;;;;;;;;;;;;;;;20.38;67.92;100539.44;5045061;28;1673;-40
2021/10/12 03:33:35;;;;;;;;;;;;;;;20.37;66.83;100532.38;5045307;28;1623;-40
2021/10/12 03:36:12;;;;;;;;;;;;;;;20.33;68.13;100536.34;5047396;28;1480;-41
2021/10/12 03:38:40;;;;;;;;;;;;;;;20.45;67.17;100510.97;5052180;28;1928;-40
2021/10/12 03:41:07;;;;;;;;;;;;;;;20.33;67.25;100506.81;5040504;28;1795;-41
2021/10/12 03:43:33;;;;;;;;;;;;;;;20.30;67.51;100486.50;5050557;28;1590;-40
2021/10/12 03:45:59;;;;;;;;;;;;;;;20.39;67.44;100522.31;5050649;28;1745;-40
2021/10/12 03:48:26;;;;;;;;;;;;;;;20.25;68.44;100504.88;5048929;28;1914;-41
2021/10/12 03:50:52;;;;;;;;;;;;;;;20.30;68.10;100516.03;5042363;28;1090;-41
2021/10/12 03:53:19;;;;;;;;;;;;;;;20.35;68.16;100512.88;5040302;28;1900;-40
2021/10/12 03:55:47;;;;;;;;;;;;;;;20.23;68.36;100513.09;5044907;28;1846;-40
2021/10/12 03:58:13;;;;;;;;;;;;;;;20.02;68.33;100499.09;5053147;28;2349;-40
2021/10/12 04:00:39;;;;;;;;;;;;;;;19.94;68.44;100515.09;5040617;28;1674;-41
2021/10/12 04:03:06;;;;;;;;;;;;;;;19.91;68.22;100528.78;5046492;28;1526;-41
2021/10/12 04:05:32;;;;;;;;;;;;;;;19.79;68.40;100525.44;5052224;28;1558;-41
2021/10/12 04:07:59;;;;;;;;;;;;;;;19.76;68.71;100534.63;5047788;28;2010;-40
2021/10/12 04:10:25;;;;;;;;;;;;;;;19.74;69.35;100522.38;5047588;28;1780;-42
2021/10/12 04:12:54;;;;;;;;;;;;;;;19.76;68.62;100540.00;5049204;28;2849;-41
2021/10/12 04:15:21;;;;;;;;;;;;;;;19.73;69.50;100534.06;5050898;28;1610;-41
2021/10/12 04:17:48;;;;;;;;;;;;;;;19.67;70.19;100524.72;5044842;28;2146;-41
2021/10/12 04:20:15;;;;;;;;;;;;;;;19.75;70.02;100538.28;5050392;28;1821;-40
2021/10/12 04:22:41;;;;;;;;;;;;;;;19.85;69.99;100535.56;5049868;28;1752;-43
2021/10/12 04:25:08;;;;;;;;;;;;;;;19.77;69.93;100517.53;5038633;28;12182;-41
2021/10/12 04:27:35;;;;;;;;;;;;;;;19.69;70.29;100520.06;5048113;28;1906;-41
2021/10/12 04:30:03;;;;;;;;;;;;;;;19.74;70.76;100535.78;5050546;28;1699;-42
2021/10/12 04:32:29;;;;;;;;;;;;;;;19.73;71.16;100529.53;5042492;28;1558;-42
2021/10/12 04:34:56;;;;;;;;;;;;;;;19.74;71.30;100541.16;5044489;28;11080;-41
2021/10/12 04:37:22;;;;;;;;;;;;;;;19.73;71.81;100526.88;5030327;28;1784;-41
2021/10/12 04:39:49;;;;;;;;;;;;;;;19.69;71.02;100528.13;5026179;28;1817;-42
2021/10/12 04:42:24;;;;;;;;;;;;;;;19.69;71.40;100520.06;5031165;28;10916;-41
2021/10/12 04:45:11;;;;;;;;;;;;;;;19.64;71.84;100519.69;5028331;28;1478;-41
2021/10/12 04:47:47;;;;;;;;;;;;;;;19.61;71.80;100520.78;5031625;28;1940;-41
2021/10/12 04:50:16;;;;;;;;;;;;;;;19.55;71.83;100525.91;5032898;28;1646;-41
2021/10/12 04:52:45;;;;;;;;;;;;;;;19.37;70.56;100523.97;5032194;28;1934;-41
2021/10/12 04:55:13;;;;;;;;;;;;;;;19.41;71.34;100528.03;5032044;28;1607;-41
2021/10/12 04:57:43;;;;;;;;;;;;;;;19.46;70.50;100522.25;5019542;28;1695;-41
2021/10/12 05:00:10;;;;;;;;;;;;;;;19.42;71.00;100516.34;5033192;28;1406;-41
2021/10/12 05:02:40;;;;;;;;;;;;;;;19.38;71.93;100520.28;5032266;28;1653;-41
2021/10/12 05:05:10;;;;;;;;;;;;;;;19.39;73.37;100519.28;5029843;28;1952;-41
2021/10/12 05:07:42;;;;;;;;;;;;;;;19.39;73.46;100516.59;5033218;28;1983;-41
2021/10/12 05:10:18;;;;;;;;;;;;;;;19.37;73.38;100517.75;5020055;28;1856;-41
2021/10/12 05:12:47;;;;;;;;;;;;;;;19.39;71.97;100513.94;5019356;28;2007;-41
2021/10/12 05:15:21;;;;;;;;;;;;;;;19.48;71.72;100498.81;5032936;28;1872;-41
2021/10/12 05:17:50;;;;;;;;;;;;;;;19.48;71.31;100507.72;5030145;28;1749;-42
2021/10/12 05:20:19;;;;;;;;;;;;;;;19.42;72.46;100510.13;5031430;28;2249;-41
2021/10/12 05:22:48;;;;;;;;;;;;;;;19.43;72.61;100520.69;5031373;28;1410;-41
2021/10/12 05:25:17;;;;;;;;;;;;;;;19.36;72.11;100521.41;5027373;28;1587;-42
2021/10/12 05:27:50;;;;;;;;;;;;;;;19.39;72.93;100511.25;5024332;28;1968;-41
2021/10/12 05:30:16;;;;;;;;;;;;;;;19.37;73.18;100515.91;5015705;28;1507;-43
2021/10/12 05:32:43;;;;;;;;;;;;;;;19.36;72.01;100511.56;5027746;28;1690;-42
2021/10/12 05:35:10;;;;;;;;;;;;;;;19.35;72.43;100520.56;5029566;28;1382;-42
2021/10/12 05:37:37;;;;;;;;;;;;;;;19.33;71.47;100522.56;5029754;28;1627;-41
2021/10/12 05:40:05;;;;;;;;;;;;;;;19.27;71.75;100520.44;5029517;28;1674;-42
2021/10/12 05:42:31;;;;;;;;;;;;;;;19.28;70.97;100522.16;5027781;28;2077;-41
2021/10/12 05:44:57;;;;;;;;;;;;;;;19.28;71.86;100522.16;5029920;28;1752;-42
2021/10/12 05:47:24;;;;;;;;;;;;;;;19.22;70.87;100514.69;5035385;28;1742;-41
2021/10/12 05:49:50;;;;;;;;;;;;;;;19.24;71.57;100516.22;5028774;28;1906;-41
2021/10/12 05:52:19;;;;;;;;;;;;;;;19.27;71.34;100523.13;5029347;28;1651;-41
2021/10/12 05:54:51;;;;;;;;;;;;;;;19.25;70.67;100515.22;5026068;28;1648;-41
2021/10/12 05:57:24;;;;;;;;;;;;;;;19.25;71.14;100500.97;5022786;28;1672;-42
2021/10/12 05:59:50;;;;;;;;;;;;;;;19.21;71.18;100508.47;5022188;28;1805;-42
2021/10/12 06:02:17;;;;;;;;;;;;;;;19.23;71.19;100500.28;5021150;28;1962;-43
2021/10/12 06:04:43;;;;;;;;;;;;;;;19.26;70.88;100500.00;5028802;28;1764;-41
2021/10/12 06:07:09;;;;;;;;;;;;;;;19.23;71.15;100511.84;5030656;28;1989;-41
2021/10/12 06:09:36;;;;;;;;;;;;;;;19.22;71.08;100509.31;5021874;28;1909;-42
2021/10/12 06:12:04;;;;;;;;;;;;;;;19.23;70.16;100516.38;5029637;28;1794;-41
2021/10/12 06:14:30;;;;;;;;;;;;;;;19.19;70.78;100504.25;5030065;28;1565;-41
2021/10/12 06:16:57;;;;;;;;;;;;;;;19.20;70.75;100513.94;5024606;28;2760;-42
2021/10/12 06:19:23;;;;;;;;;;;;;;;19.21;70.30;100518.34;5020794;28;1982;-41
2021/10/12 06:21:50;;;;;;;;;;;;;;;19.20;69.38;100520.19;5029205;28;1613;-41
2021/10/12 06:24:16;;;;;;;;;;;;;;;19.25;69.24;100525.94;5018596;28;1452;-44
2021/10/12 06:26:43;;;;;;;;;;;;;;;19.24;69.22;100526.94;5029326;28;1762;-41
2021/10/12 06:29:11;;;;;;;;;;;;;;;19.19;69.59;100531.03;5027607;28;2108;-42
2021/10/12 06:31:38;;;;;;;;;;;;;;;19.15;70.04;100525.13;5022967;28;1627;-41
2021/10/12 06:34:06;;;;;;;;;;;;;;;19.15;70.23;100529.63;5028148;28;1614;-42
2021/10/12 06:36:32;;;;;;;;;;;;;;;19.15;69.29;100522.44;5030720;28;1408;-41
2021/10/12 06:38:59;;;;;;;;;;;;;;;19.12;69.05;100522.75;5019313;28;1996;-42
2021/10/12 06:41:25;;;;;;;;;;;;;;;19.07;69.30;100523.13;5025509;28;1622;-42
2021/10/12 06:43:52;;;;;;;;;;;;;;;19.16;69.11;100526.81;5021458;28;1798;-41
2021/10/12 06:46:20;;;;;;;;;;;;;;;19.12;69.31;100524.53;5018973;28;1721;-41
2021/10/12 06:48:46;;;;;;;;;;;;;;;19.12;69.25;100513.81;5022711;28;1979;-41
2021/10/12 06:51:12;;;;;;;;;;;;;;;19.13;68.74;100511.00;5026771;28;1068;-41
2021/10/12 06:53:43;;;;;;;;;;;;;;;19.12;69.22;100514.69;5021780;28;1761;-41
2021/10/12 06:56:09;;;;;;;;;;;;;;;19.10;68.87;100513.13;5028632;28;1676;-41
2021/10/12 06:58:36;;;;;;;;;;;;;;;19.30;69.52;100514.81;5021546;28;1839;-41
2021/10/12 07:01:02;;;;;;;;;;;;;;;19.84;66.85;100532.06;5024753;28;1806;-40
2021/10/12 07:03:30;;;;;;;;;;;;;;;20.19;65.89;100530.50;5023363;28;1517;-41
2021/10/12 07:05:57;;;;;;;;;;;;;;;19.93;67.33;100545.59;5026545;28;1427;-41
2021/10/12 07:08:23;;;;;;;;;;;;;;;19.95;67.80;100522.13;5024396;28;1906;-42
2021/10/12 07:10:50;;;;;;;;;;;;;;;20.28;66.67;100539.50;5024172;28;1845;-41
2021/10/12 07:13:17;;;;;;;;;;;;;;;20.37;66.13;100533.25;5021901;28;1988;-41
2021/10/12 07:15:44;;;;;;;;;;;;;;;20.48;66.10;100524.13;5020784;28;1624;-41
2021/10/12 07:18:12;;;;;;;;;;;;;;;20.47;65.56;100533.16;5022358;28;1641;-41
2021/10/12 07:20:51;;;;;;;;;;;;;;;20.47;66.36;100541.22;5012129;28;1080;-41
2021/10/12 07:26:00;;;;;;;;;;;;;;;20.37;66.96;100541.28;5026801;28;1642;-41
2021/10/12 07:28:26;;;;;;;;;;;;;;;20.36;66.75;100544.13;5029427;28;2065;-41
2021/10/12 07:30:53;;;;;;;;;;;;;;;20.41;66.63;100542.69;5028571;28;1607;-41
2021/10/12 07:33:19;;;;;;;;;;;;;;;20.36;66.86;100542.28;5030119;28;1739;-42
2021/10/12 07:35:47;;;;;;;;;;;;;;;20.22;67.01;100535.56;5024423;28;1077;-41
2021/10/12 07:38:13;;;;;;;;;;;;;;;20.34;67.21;100543.44;5024664;28;1990;-41
2021/10/12 07:40:41;;;;;;;;;;;;;;;20.33;67.01;100530.97;5025759;28;1672;-41
2021/10/12 07:43:08;;;;;;;;;;;;;;;20.37;66.07;100527.88;5027075;28;1669;-41
2021/10/12 07:45:34;;;;;;;;;;;;;;;20.20;67.30;100526.81;5032482;28;1677;-41
2021/10/12 07:48:01;;;;;;;;;;;;;;;20.15;67.27;100526.41;5032581;28;1623;-42
2021/10/12 07:50:27;;;;;;;;;;;;;;;20.39;67.37;100527.69;5031440;28;1971;-41
2021/10/12 07:52:55;;;;;;;;;;;;;;;20.31;67.63;100527.59;5029132;28;1917;-41
2021/10/12 07:55:29;;;;;;;;;;;;;;;20.55;66.83;100522.53;5029401;28;1720;-41
2021/10/12 07:57:57;;;;;;;;;;;;;;;20.74;65.31;100508.13;5023561;28;1644;-42
2021/10/12 08:00:25;;;;;;;;;;;;;;;20.84;64.94;100498.13;5026070;28;1098;-41
2021/10/12 08:02:51;;;;;;;;;;;;;;;20.88;64.77;100487.94;5025125;28;1822;-41
2021/10/12 08:05:18;;;;;;;;;;;;;;;20.88;64.91;100504.06;5024739;28;1971;-41
2021/10/12 08:07:44;;;;;;;;;;;;;;;20.97;65.32;100502.28;5032150;28;1658;-41
2021/10/12 08:10:12;;;;;;;;;;;;;;;20.82;65.94;100504.66;5029034;28;1975;-41
2021/10/12 08:12:39;;;;;;;;;;;;;;;20.83;65.39;100495.59;5032890;28;1379;-41
2021/10/12 08:15:06;;;;;;;;;;;;;;;20.94;65.22;100471.19;5029758;28;1568;-41
2021/10/12 08:17:32;;;;;;;;;;;;;;;20.89;64.93;100486.94;5026560;28;1587;-41
2021/10/12 08:19:59;;;;;;;;;;;;;;;20.80;65.79;100486.00;5028921;28;1485;-42
2021/10/12 08:22:25;;;;;;;;;;;;;;;21.14;64.54;100501.41;5028894;28;1671;-41
2021/10/12 08:24:51;;;;;;;;;;;;;;;21.27;63.82;100460.69;5031474;28;1653;-41
2021/10/12 08:27:19;;;;;;;;;;;;;;;21.11;64.32;100461.41;5026000;28;1655;-43
2021/10/12 08:29:46;;;;;;;;;;;;;;;20.73;65.98;100478.72;5029683;28;1910;-42
2021/10/12 08:32:12;;;;;;;;;;;;;;;20.49;66.45;100476.59;5026564;28;1615;-41
2021/10/12 08:34:39;;;;;;;;;;;;;;;20.76;65.51;100483.78;5022105;28;1945;-41
2021/10/12 08:37:05;;;;;;;;;;;;;;;21.16;64.80;100464.44;5032361;28;1640;-41
2021/10/12 08:39:33;;;;;;;;;;;;;;;21.53;63.37;100465.25;5024105;28;1942;-41
2021/10/12 08:42:03;;;;;;;;;;;;;;;21.21;64.47;100464.84;5030857;28;1864;-43
2021/10/12 08:44:31;;;;;;;;;;;;;;;20.77;65.61;100472.91;5032540;28;1136;-41
2021/10/12 08:46:58;;;;;;;;;;;;;;;20.54;67.17;100491.28;5031335;28;1903;-41
2021/10/12 08:49:24;;;;;;;;;;;;;;;20.80;65.74;100486.00;5027489;28;1919;-41
2021/10/12 08:51:50;;;;;;;;;;;;;;;21.25;64.45;100466.22;5017137;28;1792;-41
2021/10/12 08:54:17;;;;;;;;;;;;;;;21.44;63.90;100451.72;5022265;28;1931;-43
2021/10/12 08:56:44;;;;;;;;;;;;;;;21.02;64.80;100468.56;5025201;28;2014;-42
2021/10/12 08:59:10;;;;;;;;;;;;;;;20.69;66.63;100477.34;5024679;28;1704;-41
2021/10/12 09:01:52;;;;;;;;;;;;;;;20.66;65.68;100483.88;5027806;28;1730;-41
2021/10/12 09:04:19;;;;;;;;;;;;;;;20.91;65.34;100489.44;5026768;28;2115;-41
2021/10/12 09:06:52;;;;;;;;;;;;;;;21.21;64.42;100502.50;5034006;28;1574;-41
2021/10/12 09:09:19;;;;;;;;;;;;;;;21.14;64.82;100503.25;5028467;28;1930;-42
2021/10/12 09:11:46;;;;;;;;;;;;;;;21.11;64.98;100499.06;5033128;28;1682;-43
2021/10/12 09:14:12;;;;;;;;;;;;;;;21.01;65.29;100476.78;5029068;28;1675;-41
2021/10/12 09:16:40;;;;;;;;;;;;;;;20.94;65.63;100487.31;5023218;28;1927;-41
2021/10/12 09:19:07;;;;;;;;;;;;;;;21.00;66.57;100508.19;5027455;28;1763;-41
2021/10/12 09:21:36;;;;;;;;;;;;;;;20.91;66.45;100493.00;5028732;28;2711;-41
2021/10/12 09:24:05;;;;;;;;;;;;;;;21.05;66.11;100487.06;5029912;28;2032;-42
2021/10/12 09:26:34;;;;;;;;;;;;;;;21.02;65.78;100508.03;5027408;28;1598;-41
2021/10/12 09:29:02;;;;;;;;;;;;;;;20.97;66.47;100503.13;5029827;28;2079;-42
2021/10/12 09:31:32;;;;;;;;;;;;;;;21.18;64.96;100480.44;5029516;28;1580;-42
2021/10/12 09:34:01;;;;;;;;;;;;;;;21.04;66.45;100498.81;5026775;28;1670;-43
2021/10/12 09:36:28;;;;;;;;;;;;;;;20.78;66.79;100487.16;5032440;28;1367;-42
2021/10/12 09:38:57;;;;;;;;;;;;;;;20.62;68.06;100482.50;5028871;28;1661;-42
2021/10/12 09:41:24;;;;;;;;;;;;;;;20.73;66.97;100482.28;5029372;28;1520;-42
2021/10/12 09:43:51;;;;;;;;;;;;;;;20.96;66.32;100455.75;5024672;28;1914;-42
2021/10/12 09:46:28;;;;;;;;;;;;;;;21.25;65.84;100460.00;5028784;28;1555;-41
2021/10/12 09:48:55;;;;;;;;;;;;;;;21.13;65.57;100455.84;5026030;28;1969;-42
2021/10/12 09:51:21;;;;;;;;;;;;;;;20.87;67.18;100475.50;5032996;28;1672;-51
2021/10/12 09:53:47;;;;;;;;;;;;;;;20.69;67.57;100455.84;5029571;28;2056;-51
2021/10/12 09:56:15;;;;;;;;;;;;;;;20.98;66.37;100467.19;5022708;28;1683;-51
2021/10/12 09:58:43;;;;;;;;;;;;;;;21.12;66.70;100438.88;5029587;28;1978;-51
2021/10/12 10:01:10;;;;;;;;;;;;;;;21.41;65.47;100448.50;5022412;28;1548;-52
2021/10/12 10:03:37;;;;;;;;;;;;;;;21.08;65.98;100447.44;5029188;28;1507;-51
2021/10/12 10:06:05;;;;;;;;;;;;;;;20.78;67.73;100461.13;5032537;28;1536;-51
2021/10/12 10:08:36;;;;;;;;;;;;;;;20.51;68.76;100456.63;5019856;28;1715;-50
2021/10/12 10:11:04;;;;;;;;;;;;;;;20.78;66.90;100458.44;5028704;28;1973;-50
2021/10/12 10:13:33;;;;;;;;;;;;;;;20.86;66.79;100430.78;5024534;28;1649;-51
2021/10/12 10:16:00;;;;;;;;;;;;;;;21.28;66.24;100424.69;5023938;28;1719;-50
2021/10/12 10:18:27;;;;;;;;;;;;;;;21.13;66.94;100420.91;5020584;28;1504;-51
2021/10/12 10:20:55;;;;;;;;;;;;;;;20.82;67.62;100434.81;5033166;28;1694;-51
2021/10/12 10:23:40;;;;;;;;;;;;;;;20.69;68.42;100418.22;5024401;28;2003;-51
2021/10/12 10:26:26;;;;;;;;;;;;;;;20.96;67.06;100410.03;5029921;28;1904;-50
2021/10/12 10:28:55;;;;;;;;;;;;;;;21.08;67.06;100401.72;5029375;28;1561;-50
2021/10/12 10:31:40;;;;;;;;;;;;;;;21.30;66.66;100405.72;5027112;28;1906;-51
2021/10/12 10:34:25;;;;;;;;;;;;;;;21.03;66.34;100392.28;5022995;28;1837;-51
2021/10/12 10:37:12;;;;;;;;;;;;;;;20.99;67.76;100407.06;5014028;28;1955;-51
2021/10/12 10:39:39;;;;;;;;;;;;;;;20.80;68.59;100431.41;5030206;28;2282;-51
2021/10/12 10:42:06;;;;;;;;;;;;;;;20.63;67.95;100420.53;5027747;28;1731;-51
2021/10/12 10:44:47;;;;;;;;;;;;;;;20.97;67.95;100401.00;5028223;28;1343;-51
2021/10/12 10:47:44;;;;;;;;;;;;;;;21.03;67.72;100408.41;5030388;28;2843;-51
2021/10/12 10:50:11;;;;;;;;;;;;;;;21.10;67.38;100410.47;5039110;28;1902;-50
2021/10/12 10:52:41;;;;;;;;;;;;;;;21.01;67.25;100407.75;5029562;28;1453;-51
2021/10/12 10:55:08;;;;;;;;;;;;;;;20.80;68.25;100404.56;5024321;28;1724;-51
2021/10/12 10:57:35;;;;;;;;;;;;;;;20.79;68.78;100395.66;5025530;28;1421;-50
2021/10/12 11:00:23;;;;;;;;;;;;;;;21.11;67.76;100404.94;5032600;28;1692;-50
2021/10/12 11:02:51;;;;;;;;;;;;;;;21.36;66.41;100415.84;5034919;28;1823;-51
2021/10/12 11:05:31;;;;;;;;;;;;;;;21.29;66.47;100394.13;5032980;28;1661;-50
2021/10/12 11:08:06;;;;;;;;;;;;;;;20.98;67.23;100412.56;5030310;28;1624;-51
2021/10/12 11:10:33;;;;;;;;;;;;;;;20.77;68.40;100394.09;5025466;28;1950;-50
2021/10/12 11:12:59;;;;;;;;;;;;;;;20.85;67.50;100399.56;5030498;28;1543;-50
2021/10/12 11:15:26;;;;;;;;;;;;;;;21.08;67.09;100399.03;5033248;28;1534;-50
2021/10/12 11:18:05;;;;;;;;;;;;;;;21.25;66.76;100392.75;5025508;28;1472;-51
2021/10/12 11:20:38;;;;;;;;;;;;;;;21.12;66.74;100397.72;5034517;28;1735;-50
2021/10/12 11:23:05;;;;;;;;;;;;;;;20.82;67.93;100389.94;5034631;28;1806;-50
2021/10/12 11:25:31;;;;;;;;;;;;;;;20.69;67.70;100410.16;5030985;28;1634;-50
2021/10/12 11:28:06;;;;;;;;;;;;;;;20.96;67.27;100376.94;5029186;28;1522;-50
2021/10/12 11:30:33;;;;;;;;;;;;;;;21.12;67.02;100397.72;5033756;28;1977;-50
2021/10/12 11:33:01;;;;;;;;;;;;;;;21.14;66.71;100398.41;5031551;28;1640;-50
2021/10/12 11:35:34;;;;;;;;;;;;;;;20.60;67.08;100409.25;5027363;28;1553;-50
2021/10/12 11:38:00;;;;;;;;;;;;;;;20.51;68.54;100423.56;5029893;28;1953;-50
2021/10/12 11:40:27;;;;;;;;;;;;;;;20.39;68.07;100412.22;5031344;28;1629;-51
2021/10/12 11:42:56;;;;;;;;;;;;;;;20.44;68.86;100415.28;5030518;28;1761;-50
2021/10/12 11:45:22;;;;;;;;;;;;;;;20.85;67.38;100388.81;5033281;28;1560;-51
2021/10/12 11:47:49;;;;;;;;;;;;;;;20.79;67.64;100382.22;5035780;28;1641;-49
2021/10/12 11:50:16;;;;;;;;;;;;;;;20.89;66.37;100384.81;5036603;28;1902;-50
2021/10/12 11:52:46;;;;;;;;;;;;;;;20.92;65.47;100373.72;5031876;28;1582;-51
2021/10/12 11:55:14;;;;;;;;;;;;;;;20.83;66.37;100371.97;5026975;28;1613;-50
2021/10/12 11:57:43;;;;;;;;;;;;;;;20.63;68.26;100372.19;5029657;28;1776;-51
2021/10/12 12:00:10;;;;;;;;;;;;;;;20.55;68.78;100390.03;5027604;28;1488;-50
2021/10/12 12:02:37;;;;;;;;;;;;;;;20.84;68.44;100363.75;5029836;28;1485;-48
2021/10/12 12:05:03;;;;;;;;;;;;;;;20.64;68.00;100367.66;5033344;28;1082;-49
2021/10/12 12:07:31;;;;;;;;;;;;;;;20.52;68.51;100372.38;5034471;28;1548;-49
2021/10/12 12:09:59;;;;;;;;;;;;;;;20.45;71.71;100390.09;5029577;28;1981;-49
2021/10/12 12:12:26;;;;;;;;;;;;;;;20.38;71.80;100381.00;5023809;28;1481;-49
2021/10/12 12:14:54;;;;;;;;;;;;;;;20.34;72.94;100372.41;5033271;28;1625;-49
2021/10/12 12:17:21;;;;;;;;;;;;;;;20.32;71.27;100376.25;5029080;28;1504;-49
2021/10/12 12:19:49;;;;;;;;;;;;;;;20.48;73.48;100388.97;5033485;28;1373;-49
2021/10/12 12:22:16;;;;;;;;;;;;;;;20.48;73.07;100379.06;5031102;28;2721;-43
2021/10/12 12:24:52;;;;;;;;;;;;;;;20.42;72.54;100377.00;5027279;28;1573;-44
2021/10/12 12:27:20;;;;;;;;;;;;;;;20.43;74.64;100346.44;5031706;28;1642;-43
2021/10/12 12:29:56;;;;;;;;;;;;;;;20.39;75.11;100374.63;5028252;28;1989;-44
2021/10/12 12:32:23;;;;;;;;;;;;;;;20.29;74.42;100365.78;5027803;28;1530;-43
2021/10/12 12:34:57;;;;;;;;;;;;;;;20.30;75.61;100351.38;5026882;28;1537;-43
2021/10/12 12:37:24;;;;;;;;;;;;;;;20.24;75.42;100348.31;5031459;28;2101;-43
2021/10/12 12:39:51;;;;;;;;;;;;;;;20.29;76.75;100363.94;5028152;28;1601;-44
2021/10/12 12:42:30;;;;;;;;;;;;;;;20.30;75.77;100370.19;5019973;28;1632;-43
2021/10/12 12:45:06;;;;;;;;;;;;;;;20.29;75.16;100352.38;5031242;28;1692;-43
2021/10/12 12:47:33;;;;;;;;;;;;;;;20.26;75.90;100358.91;5028129;28;1488;-43
2021/10/12 12:50:07;;;;;;;;;;;;;;;20.26;76.33;100359.75;5025346;28;1948;-44
2021/10/12 12:52:34;;;;;;;;;;;;;;;20.22;73.48;100347.63;5029247;28;1738;-44